首页
METAR-TAF:

METAR-TAF

机场 :

青森機場

青森, 日本

纬度: 40-44N, 经度: 140-42E, 海拔: 199米

当前天气观测

该预报发布于8小时和50分钟前的12:43 UTC
风速4节,风向北转东北
温度 17°C
湿度 100%
气压 1005 hPa
能見度: 1000
少量云层低于100英尺
散云层高于100英尺
多云层高于200英尺
碎片雾, 轻雾

METAR: RJSA 151243Z 03004KT 1000 R24/1200VP2000U BCFG BR FEW000 SCT001 BKN002 17/17 Q1005 RMK 1ST000 3ST001 7ST002 A2969

时间: 06:33 (21:33 UTC)

预报

该预报发布于4小时和28分钟前的17:05 UTC
预报有效从15日的 18点(UTC)到 17日的 00点(UTC)
风速8节,风向北转东北
能見度: 0300
层高于100英尺
成为
从 15日的 22点(UTC)到 16日的 00点(UTC)
能见度10公里或以上
少量云层高于2000英尺
散云层高于4000英尺
成为
从 16日的 06点(UTC)到 16日的 09点(UTC)
风速8节,风向西南
短暂存在
从 16日的 06点(UTC)到 16日的 12点(UTC)
能見度: 3000
少量云层高于500英尺
多云层高于800英尺
少量云层高于2000英尺, 积雨云.
雷暴, 雨, 轻雾,

TAF: RJSA 151705Z 1518/1700 02008KT 0300 FG VV001 BECMG 1522/1600 9999 NSW FEW020 SCT040 BECMG 1606/1609 22008KT TEMPO 1606/1612 3000 TSRA BR FEW005 BKN008 FEW020CB

超过4000个机场的气象观测和天气预报(METAR&TAF报告)。

可查询的气象台以黄色和红色小点在地图上表示。

将鼠标移到小点上方,可查看气象台名称。

然后点击查看天气观测和预报。

如需切换地图:点击带黑十字的绿色按钮放大地图;点击带横线的绿色按钮缩小地图;或者点击绿色箭头查看邻近地区的地图。


METAR-TAF: